createdAt,value
2023-01-15T00:00:25.614Z,81.69
2023-01-15T00:03:28.840Z,81.62
2023-01-15T00:06:32.692Z,81.99
2023-01-15T00:09:35.620Z,81.51
2023-01-15T00:12:39.681Z,82.73
2023-01-15T00:15:44.403Z,83.05
2023-01-15T00:18:51.616Z,83.36
2023-01-15T00:21:55.005Z,83.19
2023-01-15T00:28:33.145Z,82.70
2023-01-15T00:31:36.691Z,83.43
2023-01-15T00:34:39.538Z,82.57
2023-01-15T00:37:42.429Z,82.69
2023-01-15T00:40:45.736Z,83.30
2023-01-15T00:43:50.179Z,82.43
2023-01-15T00:46:54.261Z,82.65
2023-01-15T00:49:57.051Z,82.37
2023-01-15T00:52:59.754Z,81.76
2023-01-15T00:56:02.488Z,81.84
2023-01-15T00:59:07.067Z,81.73
2023-01-15T01:02:09.972Z,81.11
2023-01-15T01:05:12.827Z,81.25
2023-01-15T01:08:15.886Z,81.65
2023-01-15T01:11:20.155Z,81.26
2023-01-15T01:14:24.387Z,81.67
2023-01-15T01:17:27.358Z,80.75
2023-01-15T01:20:30.292Z,80.31
2023-01-15T01:23:33.033Z,79.59
2023-01-15T01:26:36.410Z,79.53
2023-01-15T01:29:40.559Z,79.37
2023-01-15T01:32:45.923Z,78.84
2023-01-15T01:35:49.780Z,78.95
2023-01-15T01:38:52.700Z,78.95
2023-01-15T01:41:55.508Z,79.24
2023-01-15T01:45:18.175Z,78.73
2023-01-15T01:48:26.520Z,79.21
2023-01-15T01:51:37.263Z,79.21
2023-01-15T01:54:40.694Z,79.43
2023-01-15T01:57:44.534Z,79.41
2023-01-15T02:00:51.319Z,79.31
2023-01-15T02:03:55.376Z,78.74
2023-01-15T02:07:00.066Z,79.11
2023-01-15T02:10:03.094Z,78.53
2023-01-15T02:13:11.967Z,79.47
2023-01-15T02:16:22.771Z,78.66
2023-01-15T02:19:41.332Z,79.57
2023-01-15T02:22:54.581Z,79.29
2023-01-15T02:26:23.247Z,79.70
2023-01-15T02:29:35.110Z,79.73
2023-01-15T02:32:43.206Z,79.29
2023-01-15T02:35:49.469Z,79.64
2023-01-15T02:38:56.924Z,79.34
2023-01-15T02:42:03.994Z,79.78
2023-01-15T02:45:10.633Z,79.57
2023-01-15T02:48:15.668Z,80.40
2023-01-15T02:51:24.780Z,79.87
2023-01-15T02:54:30.688Z,80.80
2023-01-15T02:57:35.900Z,80.60
2023-01-15T03:00:43.791Z,81.42
2023-01-15T03:03:53.551Z,80.65
2023-01-15T03:07:01.674Z,80.76
2023-01-15T03:10:05.972Z,80.09
2023-01-15T03:13:12.880Z,80.97
2023-01-15T03:16:37.905Z,80.86
2023-01-15T03:19:47.113Z,80.95
2023-01-15T03:22:55.182Z,81.55
2023-01-15T03:25:58.440Z,81.46
2023-01-15T03:29:03.639Z,80.70
2023-01-15T03:32:08.191Z,81.18
2023-01-15T03:35:46.062Z,80.74
2023-01-15T03:38:50.834Z,80.56
2023-01-15T03:42:06.155Z,80.09
2023-01-15T03:45:16.503Z,79.88
2023-01-15T03:48:28.512Z,80.28
2023-01-15T03:51:39.789Z,79.50
2023-01-15T03:54:49.893Z,79.29
2023-01-15T03:57:58.572Z,78.62
2023-01-15T04:01:04.697Z,78.54
2023-01-15T04:04:09.200Z,78.12
2023-01-15T04:07:12.568Z,77.97
2023-01-15T04:10:15.387Z,77.92
2023-01-15T04:13:18.095Z,78.10
2023-01-15T04:16:26.236Z,78.09
2023-01-15T04:19:30.420Z,78.47
2023-01-15T04:22:33.265Z,78.44
2023-01-15T04:25:36.058Z,78.40
2023-01-15T04:28:38.810Z,78.35
2023-01-15T04:31:41.569Z,78.95
2023-01-15T04:34:45.732Z,78.26
2023-01-15T04:37:48.542Z,77.79
2023-01-15T04:41:08.771Z,77.90
2023-01-15T04:44:11.562Z,77.89
2023-01-15T04:47:14.396Z,78.57
2023-01-15T04:50:18.818Z,79.02
2023-01-15T04:53:21.602Z,79.18
2023-01-15T04:56:24.671Z,79.61
2023-01-15T04:59:29.097Z,79.70
2023-01-15T05:02:33.636Z,79.14
2023-01-15T05:05:37.810Z,79.33
2023-01-15T05:08:40.609Z,79.08
2023-01-15T05:11:43.402Z,80.25
2023-01-15T05:14:46.110Z,82.54
2023-01-15T05:17:48.964Z,83.67
2023-01-15T05:20:53.796Z,85.87
2023-01-15T05:23:57.973Z,86.21
2023-01-15T05:27:00.934Z,86.84
2023-01-15T05:30:04.035Z,88.22
2023-01-15T05:33:09.880Z,88.68
2023-01-15T05:36:16.122Z,89.01
2023-01-15T05:39:18.953Z,90.24
2023-01-15T05:42:21.675Z,90.33
2023-01-15T05:45:24.432Z,90.51
2023-01-15T05:48:29.045Z,91.63
2023-01-15T05:51:33.175Z,90.92
2023-01-15T05:54:37.434Z,90.38
2023-01-15T05:57:40.153Z,88.71
2023-01-15T06:00:42.995Z,87.68
2023-01-15T06:03:47.170Z,88.18
2023-01-15T06:06:52.635Z,88.43
2023-01-15T06:09:55.436Z,88.95
2023-01-15T06:12:58.217Z,89.00
2023-01-15T06:16:01.103Z,89.21
2023-01-15T06:19:05.972Z,89.69
2023-01-15T06:22:12.406Z,89.20
2023-01-15T06:25:15.475Z,89.28
2023-01-15T06:28:18.204Z,89.46
2023-01-15T06:31:22.960Z,89.34
2023-01-15T06:34:25.703Z,90.04
2023-01-15T06:37:29.817Z,90.35
2023-01-15T06:40:32.552Z,89.42
2023-01-15T06:44:04.387Z,89.17
2023-01-15T06:47:24.636Z,89.37
2023-01-15T06:50:27.653Z,89.24
2023-01-15T06:53:31.739Z,89.24
2023-01-15T06:56:34.497Z,89.71
2023-01-15T06:59:37.371Z,88.46
2023-01-15T07:02:41.249Z,89.28
2023-01-15T07:05:44.096Z,89.57
2023-01-15T07:08:48.798Z,89.35
2023-01-15T07:11:51.575Z,89.97
2023-01-15T07:14:54.627Z,89.84
2023-01-15T07:17:57.542Z,90.06
2023-01-15T07:21:00.817Z,89.88
2023-01-15T07:24:05.594Z,90.13
2023-01-15T07:27:09.722Z,88.92
2023-01-15T07:30:16.587Z,89.27
2023-01-15T07:33:19.445Z,88.67
2023-01-15T07:36:22.102Z,89.04
2023-01-15T07:39:26.425Z,89.17
2023-01-15T07:42:46.571Z,88.69
2023-01-15T07:46:07.198Z,88.77
2023-01-15T07:49:28.912Z,87.76
2023-01-15T07:52:31.685Z,88.65
2023-01-15T07:55:36.556Z,87.92
2023-01-15T07:58:39.320Z,87.66
2023-01-15T08:01:42.294Z,88.32
2023-01-15T08:04:45.410Z,88.65
2023-01-15T08:07:49.092Z,88.46
2023-01-15T08:11:25.059Z,88.27
2023-01-15T08:14:45.178Z,88.24
2023-01-15T08:17:49.511Z,88.17
2023-01-15T08:20:52.316Z,88.06
2023-01-15T08:23:55.323Z,86.77
2023-01-15T08:26:59.516Z,86.87
2023-01-15T08:30:02.331Z,86.83
2023-01-15T08:33:05.704Z,86.72
2023-01-15T08:36:08.976Z,87.03
2023-01-15T08:39:12.404Z,86.97
2023-01-15T08:42:16.553Z,86.72
2023-01-15T08:45:19.301Z,86.51
2023-01-15T08:48:22.014Z,86.62
2023-01-15T08:51:25.140Z,85.54
2023-01-15T08:54:28.138Z,86.07
2023-01-15T08:57:32.365Z,86.62
2023-01-15T09:00:35.223Z,87.25
2023-01-15T09:03:38.461Z,88.73
2023-01-15T09:06:42.215Z,88.70
2023-01-15T09:09:45.020Z,88.31
2023-01-15T09:12:52.559Z,88.84
2023-01-15T09:15:55.862Z,88.67
2023-01-15T09:18:58.716Z,88.36
2023-01-15T09:22:01.485Z,88.64
2023-01-15T09:25:04.475Z,86.66
2023-01-15T09:28:08.777Z,86.44
2023-01-15T09:31:12.027Z,86.45
2023-01-15T09:34:14.934Z,87.05
2023-01-15T09:37:17.779Z,86.88
2023-01-15T09:40:37.784Z,86.88
2023-01-15T09:43:51.094Z,85.92
2023-01-15T09:47:05.175Z,85.13
2023-01-15T09:50:25.835Z,85.39
2023-01-15T09:53:50.976Z,85.83
2023-01-15T09:56:55.945Z,85.00
2023-01-15T10:00:03.354Z,86.58
2023-01-15T10:03:13.709Z,86.77
2023-01-15T10:06:21.108Z,86.70
2023-01-15T10:09:31.461Z,85.28
2023-01-15T10:12:38.260Z,84.22
2023-01-15T10:15:45.705Z,84.83
2023-01-15T10:18:48.592Z,84.55
2023-01-15T10:21:58.672Z,85.91
2023-01-15T10:25:05.595Z,85.44
2023-01-15T10:28:23.813Z,86.69
2023-01-15T10:31:46.543Z,85.89
2023-01-15T10:35:18.095Z,86.50
2023-01-15T10:38:28.990Z,86.45
2023-01-15T10:41:46.174Z,84.49
2023-01-15T10:45:00.692Z,85.10
2023-01-15T10:48:15.102Z,84.92
2023-01-15T10:51:21.071Z,86.25
2023-01-15T10:54:28.479Z,85.38
2023-01-15T10:57:43.261Z,86.71
2023-01-15T11:00:51.697Z,88.35
2023-01-15T11:03:55.832Z,87.48
2023-01-15T11:07:00.571Z,88.41
2023-01-15T11:10:08.926Z,86.54
2023-01-15T11:13:39.948Z,86.41
2023-01-15T11:17:02.033Z,86.68
2023-01-15T11:20:17.007Z,86.75
2023-01-15T11:23:23.297Z,88.08
2023-01-15T11:26:28.169Z,86.89
2023-01-15T11:29:37.001Z,87.27
2023-01-15T11:32:39.937Z,86.37
2023-01-15T11:35:51.587Z,86.83
2023-01-15T11:38:54.557Z,86.28
2023-01-15T11:42:18.172Z,86.71
2023-01-15T11:45:39.819Z,86.58
2023-01-15T11:49:04.967Z,86.11
2023-01-15T11:52:12.532Z,85.62
2023-01-15T11:55:19.588Z,85.69
2023-01-15T11:58:24.897Z,84.89
2023-01-15T12:01:30.504Z,86.01
2023-01-15T12:04:37.814Z,85.15
2023-01-15T12:07:41.848Z,84.42
2023-01-15T12:11:25.250Z,84.52
2023-01-15T12:14:55.145Z,84.23
2023-01-15T12:18:19.211Z,83.87
2023-01-15T12:21:49.366Z,82.85
2023-01-15T12:25:12.630Z,82.54
2023-01-15T12:28:20.661Z,83.02
2023-01-15T12:31:30.448Z,81.63
2023-01-15T12:34:42.101Z,81.64
2023-01-15T12:37:48.770Z,80.30
2023-01-15T12:40:57.422Z,79.55
2023-01-15T12:44:18.161Z,80.22
2023-01-15T12:47:25.545Z,80.24
2023-01-15T12:50:41.825Z,79.57
2023-01-15T12:53:50.327Z,79.37
2023-01-15T12:57:00.549Z,79.33
2023-01-15T13:00:13.516Z,80.64
2023-01-15T13:03:23.850Z,80.10
2023-01-15T13:06:28.612Z,80.19
2023-01-15T13:09:39.435Z,78.81
2023-01-15T13:12:44.618Z,77.72
2023-01-15T13:15:58.768Z,77.19
2023-01-15T13:19:20.181Z,77.48
2023-01-15T13:22:28.629Z,76.57
2023-01-15T13:25:44.873Z,76.57
2023-01-15T13:29:06.684Z,77.05
2023-01-15T13:32:15.669Z,75.97
2023-01-15T13:35:28.627Z,76.52
2023-01-15T13:38:34.974Z,76.90
2023-01-15T13:41:55.403Z,68.42
2023-01-15T13:45:02.985Z,56.31
2023-01-15T13:48:09.742Z,46.78
2023-01-15T13:51:26.940Z,43.33
2023-01-15T13:54:31.065Z,43.36
2023-01-15T13:57:36.246Z,44.03
2023-01-15T14:00:40.744Z,42.08
2023-01-15T14:03:56.642Z,39.34
2023-01-15T14:06:59.259Z,39.47
2023-01-15T14:10:26.096Z,41.99
2023-01-15T14:13:46.874Z,44.30
2023-01-15T14:17:03.422Z,48.51
2023-01-15T14:20:34.336Z,51.18
2023-01-15T14:24:27.957Z,54.92
2023-01-15T14:27:49.439Z,52.38
2023-01-15T14:31:13.454Z,48.16
2023-01-15T14:34:20.729Z,48.69
2023-01-15T14:37:29.600Z,52.57
2023-01-15T14:40:35.140Z,54.82
2023-01-15T14:43:41.563Z,55.57
2023-01-15T14:46:44.554Z,56.84
2023-01-15T14:49:50.451Z,59.63
2023-01-15T14:52:55.037Z,60.71
2023-01-15T14:56:03.118Z,61.12
2023-01-15T14:59:13.945Z,62.05
2023-01-15T15:02:22.434Z,62.87
2023-01-15T15:05:27.071Z,64.04
2023-01-15T15:08:33.074Z,64.07
2023-01-15T15:12:01.131Z,63.82
2023-01-15T15:15:09.896Z,64.23
2023-01-15T15:18:23.461Z,65.58
2023-01-15T15:21:30.595Z,65.99
2023-01-15T15:24:36.639Z,66.54
2023-01-15T15:27:39.310Z,66.02
2023-01-15T15:30:45.803Z,65.99
2023-01-15T15:33:48.511Z,66.97
2023-01-15T15:36:52.831Z,66.45
2023-01-15T15:40:01.039Z,67.52
2023-01-15T15:43:30.291Z,67.25
2023-01-15T15:46:52.459Z,67.74
2023-01-15T15:49:56.077Z,66.97
2023-01-15T15:53:04.515Z,67.68
2023-01-15T15:56:07.720Z,67.60
2023-01-15T15:59:19.915Z,67.57
2023-01-15T16:02:25.604Z,68.61
2023-01-15T16:05:31.636Z,68.02
2023-01-15T16:08:36.748Z,68.35
2023-01-15T16:11:40.619Z,68.84
2023-01-15T16:14:43.383Z,68.75
2023-01-15T16:17:46.753Z,68.27
2023-01-15T16:20:49.515Z,68.44
2023-01-15T16:24:02.458Z,68.56
2023-01-15T16:27:07.841Z,68.13
2023-01-15T16:30:17.156Z,68.19
2023-01-15T16:33:19.946Z,68.18
2023-01-15T16:36:23.143Z,68.48
2023-01-15T16:39:29.327Z,67.66
2023-01-15T16:42:36.312Z,68.97
2023-01-15T16:45:55.211Z,68.95
2023-01-15T16:49:20.116Z,69.48
2023-01-15T16:52:51.114Z,69.76
2023-01-15T16:55:57.066Z,70.01
2023-01-15T16:58:59.709Z,69.72
2023-01-15T17:02:06.039Z,69.37
2023-01-15T17:05:25.741Z,70.13
2023-01-15T17:08:35.003Z,70.79
2023-01-15T17:11:39.040Z,70.58
2023-01-15T17:14:41.880Z,70.67
2023-01-15T17:17:46.500Z,70.67
2023-01-15T17:20:49.331Z,70.65
2023-01-15T17:23:52.110Z,70.94
2023-01-15T17:26:56.113Z,70.83
2023-01-15T17:29:58.733Z,70.39
2023-01-15T17:33:02.674Z,71.02
2023-01-15T17:36:05.879Z,70.51
2023-01-15T17:39:12.920Z,71.37
2023-01-15T17:42:19.693Z,70.84
2023-01-15T17:45:24.572Z,71.46
2023-01-15T17:48:27.334Z,71.35
2023-01-15T17:51:30.573Z,71.11
2023-01-15T17:54:50.791Z,71.30
2023-01-15T17:58:12.641Z,72.40
2023-01-15T18:01:37.509Z,71.53
2023-01-15T18:05:01.699Z,72.41
2023-01-15T18:08:08.627Z,71.95
2023-01-15T18:11:11.706Z,72.29
2023-01-15T18:14:15.754Z,71.76
2023-01-15T18:17:18.439Z,71.38
2023-01-15T18:20:21.317Z,71.66
2023-01-15T18:23:25.936Z,71.79
2023-01-15T18:26:28.611Z,72.07
2023-01-15T18:29:33.022Z,72.29
2023-01-15T18:32:35.774Z,72.19
2023-01-15T18:35:38.438Z,71.57
2023-01-15T18:38:43.883Z,72.44
2023-01-15T18:42:04.250Z,72.80
2023-01-15T18:45:27.373Z,72.38
2023-01-15T18:48:30.288Z,72.15
2023-01-15T18:51:33.352Z,72.21
2023-01-15T18:54:36.099Z,71.85
2023-01-15T18:57:38.792Z,72.21
2023-01-15T19:00:42.868Z,72.54
2023-01-15T19:03:45.586Z,71.21
2023-01-15T19:06:48.536Z,72.86
2023-01-15T19:09:51.202Z,72.63
2023-01-15T19:12:53.876Z,71.72
2023-01-15T19:16:15.517Z,71.83
2023-01-15T19:19:18.466Z,72.27
2023-01-15T19:22:38.829Z,71.57
2023-01-15T19:25:43.841Z,71.44
2023-01-15T19:28:46.485Z,70.85
2023-01-15T19:31:50.618Z,70.22
2023-01-15T19:34:53.740Z,70.49
2023-01-15T19:37:57.370Z,69.63
2023-01-15T19:41:20.052Z,69.55
2023-01-15T19:44:40.186Z,69.44
2023-01-15T19:48:02.638Z,69.91
2023-01-15T19:51:05.897Z,69.06
2023-01-15T19:54:08.574Z,68.60
2023-01-15T19:57:28.766Z,68.42
2023-01-15T20:00:34.354Z,69.46
2023-01-15T20:03:40.061Z,69.05
2023-01-15T20:06:42.757Z,68.47
2023-01-15T20:09:45.872Z,68.98
2023-01-15T20:13:06.113Z,69.69
2023-01-15T20:16:11.068Z,69.18
2023-01-15T20:19:15.205Z,68.67
2023-01-15T20:22:17.933Z,67.87
2023-01-15T20:25:20.660Z,68.10
2023-01-15T20:28:23.314Z,68.16
2023-01-15T20:31:26.102Z,67.90
2023-01-15T20:34:31.451Z,67.62
2023-01-15T20:37:34.364Z,68.14
2023-01-15T20:40:37.065Z,68.72
2023-01-15T20:43:57.352Z,68.00
2023-01-15T20:47:00.056Z,68.03
2023-01-15T20:50:03.378Z,68.78
2023-01-15T20:53:08.764Z,68.13
2023-01-15T20:56:15.881Z,67.80
2023-01-15T20:59:18.674Z,67.90
2023-01-15T21:02:21.355Z,68.45
2023-01-15T21:05:26.256Z,69.32
2023-01-15T21:08:29.445Z,68.23
2023-01-15T21:11:32.353Z,69.28
2023-01-15T21:14:34.996Z,68.36
2023-01-15T21:17:38.893Z,68.52
2023-01-15T21:20:42.889Z,68.34
2023-01-15T21:23:46.196Z,68.91
2023-01-15T21:26:48.958Z,69.56
2023-01-15T21:29:52.235Z,69.69
2023-01-15T21:32:57.178Z,68.70
2023-01-15T21:36:06.464Z,69.70
2023-01-15T21:39:11.690Z,69.05
2023-01-15T21:42:34.681Z,70.67
2023-01-15T21:45:37.408Z,70.18
2023-01-15T21:48:40.096Z,69.62
2023-01-15T21:51:44.771Z,70.22
2023-01-15T21:54:48.039Z,70.83
2023-01-15T21:57:51.425Z,71.18
2023-01-15T22:00:54.248Z,71.54
2023-01-15T22:03:57.284Z,71.39
2023-01-15T22:07:01.401Z,72.18
2023-01-15T22:10:04.624Z,72.57
2023-01-15T22:13:07.830Z,72.73
2023-01-15T22:16:10.509Z,73.03
2023-01-15T22:19:19.446Z,73.90
2023-01-15T22:22:26.176Z,74.40
2023-01-15T22:25:28.819Z,74.62
2023-01-15T22:28:31.483Z,74.34
2023-01-15T22:31:34.171Z,74.96
2023-01-15T22:34:37.036Z,74.56
2023-01-15T22:37:41.045Z,75.09
2023-01-15T22:40:43.925Z,74.71
2023-01-15T22:43:46.632Z,73.65
2023-01-15T22:46:50.383Z,73.43
2023-01-15T22:49:53.219Z,73.62
2023-01-15T22:52:59.141Z,74.48
2023-01-15T22:56:01.888Z,73.13
2023-01-15T22:59:04.892Z,72.66
2023-01-15T23:02:07.738Z,73.61
2023-01-15T23:05:11.286Z,72.30
2023-01-15T23:08:15.352Z,71.89
2023-01-15T23:11:17.997Z,71.71
2023-01-15T23:14:22.111Z,72.31
2023-01-15T23:17:27.382Z,72.48
2023-01-15T23:20:31.847Z,71.40
2023-01-15T23:23:38.705Z,72.30
2023-01-15T23:26:43.754Z,71.43
2023-01-15T23:29:48.305Z,71.05
2023-01-15T23:32:53.040Z,72.39
2023-01-15T23:35:59.066Z,72.05
2023-01-15T23:39:05.433Z,70.64
2023-01-15T23:42:28.327Z,70.42
2023-01-15T23:45:49.469Z,69.95
2023-01-15T23:48:54.345Z,70.57
2023-01-15T23:51:59.513Z,70.13
2023-01-15T23:55:05.841Z,69.65
2023-01-15T23:58:10.349Z,69.30
